sensor_id;sensor_type;location;lat;lon;timestamp;pressure;altitude;pressure_sealevel;temperature;humidity
56630;BME280;42502;40.732;-74.254;2022-12-11T00:00:19;101874.72;;;18.17;37.29
56630;BME280;42502;40.732;-74.254;2022-12-11T00:02:20;101866.13;;;18.13;37.43
56630;BME280;42502;40.732;-74.254;2022-12-11T00:04:22;101867.75;;;18.14;37.44
56630;BME280;42502;40.732;-74.254;2022-12-11T00:06:23;101866.94;;;18.14;37.35
56630;BME280;42502;40.732;-74.254;2022-12-11T00:08:24;101861.97;;;18.10;37.59
56630;BME280;42502;40.732;-74.254;2022-12-11T00:10:25;101877.31;;;18.13;37.34
56630;BME280;42502;40.732;-74.254;2022-12-11T00:12:26;101873.66;;;18.13;37.33
56630;BME280;42502;40.732;-74.254;2022-12-11T00:14:27;101863.41;;;18.08;37.35
56630;BME280;42502;40.732;-74.254;2022-12-11T00:16:28;101872.34;;;18.10;37.64
56630;BME280;42502;40.732;-74.254;2022-12-11T00:18:32;101865.69;;;18.06;37.42
56630;BME280;42502;40.732;-74.254;2022-12-11T00:20:33;101877.94;;;18.10;37.68
56630;BME280;42502;40.732;-74.254;2022-12-11T00:22:34;101889.19;;;18.05;37.63
56630;BME280;42502;40.732;-74.254;2022-12-11T00:24:35;101886.94;;;18.07;37.70
56630;BME280;42502;40.732;-74.254;2022-12-11T00:26:36;101903.72;;;18.07;37.70
56630;BME280;42502;40.732;-74.254;2022-12-11T00:28:37;101905.47;;;18.03;37.51
56630;BME280;42502;40.732;-74.254;2022-12-11T00:30:39;101910.44;;;18.06;37.88
56630;BME280;42502;40.732;-74.254;2022-12-11T00:32:40;101904.84;;;18.06;37.50
56630;BME280;42502;40.732;-74.254;2022-12-11T00:34:42;101907.13;;;18.04;37.62
56630;BME280;42502;40.732;-74.254;2022-12-11T00:36:43;101901.31;;;18.00;37.67
56630;BME280;42502;40.732;-74.254;2022-12-11T00:38:44;101908.25;;;18.03;37.91
56630;BME280;42502;40.732;-74.254;2022-12-11T00:40:47;101899.34;;;18.01;37.80
56630;BME280;42502;40.732;-74.254;2022-12-11T00:42:48;101898.19;;;18.02;37.88
56630;BME280;42502;40.732;-74.254;2022-12-11T00:44:52;101912.19;;;18.02;37.93
56630;BME280;42502;40.732;-74.254;2022-12-11T00:46:54;101897.16;;;17.98;37.74
56630;BME280;42502;40.732;-74.254;2022-12-11T00:48:55;101894.38;;;17.98;38.01
56630;BME280;42502;40.732;-74.254;2022-12-11T00:50:56;101894.88;;;18.00;37.95
56630;BME280;42502;40.732;-74.254;2022-12-11T00:52:56;101895.81;;;17.95;37.94
56630;BME280;42502;40.732;-74.254;2022-12-11T00:55:00;101903.34;;;17.94;37.75
56630;BME280;42502;40.732;-74.254;2022-12-11T00:57:01;101911.66;;;18.00;38.04
56630;BME280;42502;40.732;-74.254;2022-12-11T00:59:02;101902.75;;;17.98;37.89
56630;BME280;42502;40.732;-74.254;2022-12-11T01:01:12;101901.59;;;17.99;38.13
56630;BME280;42502;40.732;-74.254;2022-12-11T01:03:15;101891.59;;;17.98;37.99
56630;BME280;42502;40.732;-74.254;2022-12-11T01:05:17;101896.31;;;17.97;38.03
56630;BME280;42502;40.732;-74.254;2022-12-11T01:07:18;101896.00;;;17.99;38.31
56630;BME280;42502;40.732;-74.254;2022-12-11T01:09:18;101906.16;;;17.94;37.90
56630;BME280;42502;40.732;-74.254;2022-12-11T01:11:39;101906.69;;;17.97;38.09
56630;BME280;42502;40.732;-74.254;2022-12-11T01:13:40;101913.09;;;17.97;38.03
56630;BME280;42502;40.732;-74.254;2022-12-11T01:15:43;101907.31;;;17.93;38.11
56630;BME280;42502;40.732;-74.254;2022-12-11T01:17:45;101914.53;;;17.94;38.19
56630;BME280;42502;40.732;-74.254;2022-12-11T01:19:46;101894.75;;;17.91;38.43
56630;BME280;42502;40.732;-74.254;2022-12-11T01:21:47;101900.03;;;17.92;38.42
56630;BME280;42502;40.732;-74.254;2022-12-11T01:23:49;101905.44;;;17.89;38.31
56630;BME280;42502;40.732;-74.254;2022-12-11T01:25:50;101908.44;;;17.92;38.46
56630;BME280;42502;40.732;-74.254;2022-12-11T01:27:53;101910.72;;;17.90;38.43
56630;BME280;42502;40.732;-74.254;2022-12-11T01:29:54;101905.13;;;17.90;38.37
56630;BME280;42502;40.732;-74.254;2022-12-11T01:31:55;101911.53;;;17.91;38.42
56630;BME280;42502;40.732;-74.254;2022-12-11T01:33:56;101895.06;;;17.89;38.30
56630;BME280;42502;40.732;-74.254;2022-12-11T01:35:57;101896.72;;;17.90;38.30
56630;BME280;42502;40.732;-74.254;2022-12-11T01:37:59;101895.06;;;17.89;38.47
56630;BME280;42502;40.732;-74.254;2022-12-11T01:40:00;101887.50;;;17.90;38.23
56630;BME280;42502;40.732;-74.254;2022-12-11T01:42:01;101887.78;;;17.88;38.54
56630;BME280;42502;40.732;-74.254;2022-12-11T01:44:07;101884.16;;;17.88;38.31
56630;BME280;42502;40.732;-74.254;2022-12-11T01:46:27;101877.75;;;17.87;38.66
56630;BME280;42502;40.732;-74.254;2022-12-11T01:48:30;101878.06;;;17.86;38.42
56630;BME280;42502;40.732;-74.254;2022-12-11T01:50:35;101884.47;;;17.86;38.53
56630;BME280;42502;40.732;-74.254;2022-12-11T01:52:37;101884.47;;;17.86;38.26
56630;BME280;42502;40.732;-74.254;2022-12-11T01:54:40;101888.06;;;17.87;38.44
56630;BME280;42502;40.732;-74.254;2022-12-11T01:56:42;101890.56;;;17.88;38.28
56630;BME280;42502;40.732;-74.254;2022-12-11T01:58:51;101897.31;;;17.87;38.52
56630;BME280;42502;40.732;-74.254;2022-12-11T02:00:53;101892.03;;;17.86;38.24
56630;BME280;42502;40.732;-74.254;2022-12-11T02:02:55;101886.19;;;17.82;38.49
56630;BME280;42502;40.732;-74.254;2022-12-11T02:05:01;101885.06;;;17.83;38.46
56630;BME280;42502;40.732;-74.254;2022-12-11T02:07:02;101880.91;;;17.81;38.35
56630;BME280;42502;40.732;-74.254;2022-12-11T02:09:07;101892.94;;;17.81;38.29
56630;BME280;42502;40.732;-74.254;2022-12-11T02:11:18;101897.69;;;17.81;38.36
56630;BME280;42502;40.732;-74.254;2022-12-11T02:17:53;101902.75;;;17.79;38.23
56630;BME280;42502;40.732;-74.254;2022-12-11T02:20:12;101906.38;;;17.79;38.42
56630;BME280;42502;40.732;-74.254;2022-12-11T02:22:49;101895.81;;;17.76;38.32
56630;BME280;42502;40.732;-74.254;2022-12-11T02:24:59;101901.09;;;17.77;38.27
56630;BME280;42502;40.732;-74.254;2022-12-11T02:27:25;101896.97;;;17.75;38.29
56630;BME280;42502;40.732;-74.254;2022-12-11T02:29:35;101896.97;;;17.75;38.40
56630;BME280;42502;40.732;-74.254;2022-12-11T02:31:42;101894.16;;;17.75;38.31
56630;BME280;42502;40.732;-74.254;2022-12-11T02:33:51;101894.16;;;17.75;38.13
56630;BME280;42502;40.732;-74.254;2022-12-11T02:35:55;101877.41;;;17.75;38.04
56630;BME280;42502;40.732;-74.254;2022-12-11T02:38:00;101868.47;;;17.73;38.24
56630;BME280;42502;40.732;-74.254;2022-12-11T02:40:05;101870.97;;;17.74;37.95
56630;BME280;42502;40.732;-74.254;2022-12-11T02:42:08;101862.88;;;17.73;38.01
56630;BME280;42502;40.732;-74.254;2022-12-11T02:44:12;101873.25;;;17.72;37.98
56630;BME280;42502;40.732;-74.254;2022-12-11T02:46:19;101861.25;;;17.72;38.16
56630;BME280;42502;40.732;-74.254;2022-12-11T02:48:22;101865.97;;;17.71;38.09
56630;BME280;42502;40.732;-74.254;2022-12-11T02:50:24;101873.34;;;17.67;37.87
56630;BME280;42502;40.732;-74.254;2022-12-11T02:52:27;101871.38;;;17.68;37.98
56630;BME280;42502;40.732;-74.254;2022-12-11T02:54:34;101869.69;;;17.67;37.91
56630;BME280;42502;40.732;-74.254;2022-12-11T02:56:50;101873.84;;;17.69;38.04
56630;BME280;42502;40.732;-74.254;2022-12-11T02:59:00;101860.81;;;17.65;37.93
56630;BME280;42502;40.732;-74.254;2022-12-11T03:01:04;101864.34;;;17.70;37.92
56630;BME280;42502;40.732;-74.254;2022-12-11T03:03:05;101854.59;;;17.68;37.82
56630;BME280;42502;40.732;-74.254;2022-12-11T03:05:10;101849.63;;;17.65;37.67
56630;BME280;42502;40.732;-74.254;2022-12-11T03:07:18;101850.13;;;17.67;37.90
56630;BME280;42502;40.732;-74.254;2022-12-11T03:09:23;101860.81;;;17.65;37.68
56630;BME280;42502;40.732;-74.254;2022-12-11T03:11:24;101869.69;;;17.67;37.70
56630;BME280;42502;40.732;-74.254;2022-12-11T03:13:26;101862.44;;;17.66;37.87
56630;BME280;42502;40.732;-74.254;2022-12-11T03:22:36;101860.56;;;17.61;38.07
56630;BME280;42502;40.732;-74.254;2022-12-11T03:26:58;101865.53;;;17.64;38.18
56630;BME280;42502;40.732;-74.254;2022-12-11T03:29:05;101866.69;;;17.63;37.95
56630;BME280;42502;40.732;-74.254;2022-12-11T03:31:12;101872.28;;;17.63;38.51
56630;BME280;42502;40.732;-74.254;2022-12-11T03:33:31;101863.06;;;17.63;38.67
56630;BME280;42502;40.732;-74.254;2022-12-11T03:35:39;101849.38;;;17.61;38.24
56630;BME280;42502;40.732;-74.254;2022-12-11T03:37:42;101846.28;;;17.63;38.32
56630;BME280;42502;40.732;-74.254;2022-12-11T03:39:48;101857.47;;;17.63;38.45
56630;BME280;42502;40.732;-74.254;2022-12-11T03:41:51;101855.81;;;17.62;38.67
56630;BME280;42502;40.732;-74.254;2022-12-11T03:43:56;101844.66;;;17.62;38.96
56630;BME280;42502;40.732;-74.254;2022-12-11T03:45:58;101834.91;;;17.59;38.75
56630;BME280;42502;40.732;-74.254;2022-12-11T03:48:01;101839.88;;;17.62;38.71
56630;BME280;42502;40.732;-74.254;2022-12-11T03:50:04;101846.28;;;17.63;38.98
56630;BME280;42502;40.732;-74.254;2022-12-11T03:52:09;101846.59;;;17.61;38.86
56630;BME280;42502;40.732;-74.254;2022-12-11T03:54:11;101842.47;;;17.58;39.22
56630;BME280;42502;40.732;-74.254;2022-12-11T03:56:13;101834.09;;;17.58;38.86
56630;BME280;42502;40.732;-74.254;2022-12-11T03:58:15;101831.81;;;17.61;39.30
56630;BME280;42502;40.732;-74.254;2022-12-11T04:00:18;101830.69;;;17.62;39.15
56630;BME280;42502;40.732;-74.254;2022-12-11T04:02:19;101819.56;;;17.56;38.93
56630;BME280;42502;40.732;-74.254;2022-12-11T04:04:20;101840.19;;;17.61;39.22
56630;BME280;42502;40.732;-74.254;2022-12-11T04:06:21;101840.19;;;17.61;39.02
56630;BME280;42502;40.732;-74.254;2022-12-11T04:08:22;101858.63;;;17.62;39.11
56630;BME280;42502;40.732;-74.254;2022-12-11T04:10:26;101854.97;;;17.61;39.19
56630;BME280;42502;40.732;-74.254;2022-12-11T04:12:27;101859.75;;;17.61;39.10
56630;BME280;42502;40.732;-74.254;2022-12-11T04:14:28;101857.25;;;17.59;39.08
56630;BME280;42502;40.732;-74.254;2022-12-11T04:16:48;101868.94;;;17.61;39.02
56630;BME280;42502;40.732;-74.254;2022-12-11T04:18:51;101851.16;;;17.57;38.99
56630;BME280;42502;40.732;-74.254;2022-12-11T04:21:10;101844.09;;;17.59;38.93
56630;BME280;42502;40.732;-74.254;2022-12-11T04:23:29;101846.91;;;17.59;39.18
56630;BME280;42502;40.732;-74.254;2022-12-11T04:25:49;101850.31;;;17.56;39.11
56630;BME280;42502;40.732;-74.254;2022-12-11T04:27:50;101854.56;;;17.54;38.91
56630;BME280;42502;40.732;-74.254;2022-12-11T04:29:51;101868.53;;;17.54;39.42
56630;BME280;42502;40.732;-74.254;2022-12-11T04:31:52;101861.47;;;17.56;39.11
56630;BME280;42502;40.732;-74.254;2022-12-11T04:33:53;101848.66;;;17.55;39.04
56630;BME280;42502;40.732;-74.254;2022-12-11T04:35:57;101845.88;;;17.55;39.09
56630;BME280;42502;40.732;-74.254;2022-12-11T04:37:58;101846.47;;;17.52;39.19
56630;BME280;42502;40.732;-74.254;2022-12-11T04:39:59;101857.34;;;17.54;38.91
56630;BME280;42502;40.732;-74.254;2022-12-11T04:42:00;101867.69;;;17.53;39.10
56630;BME280;42502;40.732;-74.254;2022-12-11T04:44:01;101869.34;;;17.54;39.05
56630;BME280;42502;40.732;-74.254;2022-12-11T04:46:19;101855.78;;;17.48;39.04
56630;BME280;42502;40.732;-74.254;2022-12-11T04:48:20;101847.28;;;17.53;38.79
56630;BME280;42502;40.732;-74.254;2022-12-11T04:50:21;101833.31;;;17.53;38.70
56630;BME280;42502;40.732;-74.254;2022-12-11T04:52:22;101835.06;;;17.49;38.80
56630;BME280;42502;40.732;-74.254;2022-12-11T04:54:25;101850.50;;;17.46;38.95
56630;BME280;42502;40.732;-74.254;2022-12-11T04:56:28;101858.78;;;17.51;38.92
56630;BME280;42502;40.732;-74.254;2022-12-11T04:58:32;101853.28;;;17.46;38.79
56630;BME280;42502;40.732;-74.254;2022-12-11T05:00:32;101857.97;;;17.51;38.77
56630;BME280;42502;40.732;-74.254;2022-12-11T05:02:35;101840.66;;;17.49;38.95
56630;BME280;42502;40.732;-74.254;2022-12-11T05:04:36;101835.06;;;17.49;38.89
56630;BME280;42502;40.732;-74.254;2022-12-11T05:06:37;101827.28;;;17.46;38.70
56630;BME280;42502;40.732;-74.254;2022-12-11T05:08:40;101837.03;;;17.48;38.97
56630;BME280;42502;40.732;-74.254;2022-12-11T05:10:57;101828.75;;;17.43;38.59
56630;BME280;42502;40.732;-74.254;2022-12-11T05:12:58;101829.25;;;17.45;38.85
56630;BME280;42502;40.732;-74.254;2022-12-11T05:14:58;101827.00;;;17.47;38.70
56630;BME280;42502;40.732;-74.254;2022-12-11T05:16:59;101822.56;;;17.46;38.47
56630;BME280;42502;40.732;-74.254;2022-12-11T05:19:00;101826.16;;;17.47;38.48
56630;BME280;42502;40.732;-74.254;2022-12-11T05:21:04;101826.78;;;17.44;38.61
56630;BME280;42502;40.732;-74.254;2022-12-11T05:23:05;101805.66;;;17.37;38.44
56630;BME280;42502;40.732;-74.254;2022-12-11T05:25:06;101804.44;;;17.44;38.47
56630;BME280;42502;40.732;-74.254;2022-12-11T05:27:08;101808.03;;;17.44;38.39
56630;BME280;42502;40.732;-74.254;2022-12-11T05:29:09;101814.78;;;17.43;38.57
56630;BME280;42502;40.732;-74.254;2022-12-11T05:31:15;101819.53;;;17.43;38.39
56630;BME280;42502;40.732;-74.254;2022-12-11T05:33:16;101823.97;;;17.44;38.58
56630;BME280;42502;40.732;-74.254;2022-12-11T05:35:17;101814.53;;;17.39;38.33
56630;BME280;42502;40.732;-74.254;2022-12-11T05:37:18;101821.50;;;17.42;38.36
56630;BME280;42502;40.732;-74.254;2022-12-11T05:39:19;101812.28;;;17.42;38.29
56630;BME280;42502;40.732;-74.254;2022-12-11T05:41:22;101816.22;;;17.40;38.42
56630;BME280;42502;40.732;-74.254;2022-12-11T05:43:27;101817.66;;;17.38;38.51
56630;BME280;42502;40.732;-74.254;2022-12-11T05:45:28;101823.03;;;17.34;38.38
56630;BME280;42502;40.732;-74.254;2022-12-11T05:47:32;101829.66;;;17.38;38.26
56630;BME280;42502;40.732;-74.254;2022-12-11T05:49:36;101834.41;;;17.38;37.99
56630;BME280;42502;40.732;-74.254;2022-12-11T05:51:37;101833.59;;;17.37;38.26
56630;BME280;42502;40.732;-74.254;2022-12-11T05:53:40;101831.09;;;17.36;38.08
56630;BME280;42502;40.732;-74.254;2022-12-11T05:55:42;101819.06;;;17.35;38.01
56630;BME280;42502;40.732;-74.254;2022-12-11T05:57:43;101823.84;;;17.35;38.19
56630;BME280;42502;40.732;-74.254;2022-12-11T05:59:44;101819.94;;;17.36;38.19
56630;BME280;42502;40.732;-74.254;2022-12-11T06:01:44;101818.03;;;17.31;38.25
56630;BME280;42502;40.732;-74.254;2022-12-11T06:03:46;101817.50;;;17.29;38.24
56630;BME280;42502;40.732;-74.254;2022-12-11T06:05:47;101825.28;;;17.32;38.23
56630;BME280;42502;40.732;-74.254;2022-12-11T06:07:48;101817.19;;;17.31;38.11
56630;BME280;42502;40.732;-74.254;2022-12-11T06:09:49;101822.16;;;17.34;38.06
56630;BME280;42502;40.732;-74.254;2022-12-11T06:11:50;101814.09;;;17.32;38.25
56630;BME280;42502;40.732;-74.254;2022-12-11T06:13:52;101798.81;;;17.30;38.05
56630;BME280;42502;40.732;-74.254;2022-12-11T06:15:53;101799.91;;;17.29;37.93
56630;BME280;42502;40.732;-74.254;2022-12-11T06:17:53;101804.09;;;17.31;37.72
56630;BME280;42502;40.732;-74.254;2022-12-11T06:19:54;101797.66;;;17.31;38.02
56630;BME280;42502;40.732;-74.254;2022-12-11T06:21:55;101803.22;;;17.31;37.89
56630;BME280;42502;40.732;-74.254;2022-12-11T06:23:59;101810.78;;;17.30;38.12
56630;BME280;42502;40.732;-74.254;2022-12-11T06:26:02;101797.13;;;17.29;38.05
56630;BME280;42502;40.732;-74.254;2022-12-11T06:28:03;101801.03;;;17.28;37.89
56630;BME280;42502;40.732;-74.254;2022-12-11T06:30:05;101793.81;;;17.27;37.82
56630;BME280;42502;40.732;-74.254;2022-12-11T06:32:06;101772.25;;;17.13;38.15
56630;BME280;42502;40.732;-74.254;2022-12-11T06:34:07;101799.41;;;17.27;37.89
56630;BME280;42502;40.732;-74.254;2022-12-11T06:36:14;101807.25;;;17.25;38.00
56630;BME280;42502;40.732;-74.254;2022-12-11T06:38:15;101804.44;;;17.25;37.72
56630;BME280;42502;40.732;-74.254;2022-12-11T06:40:18;101811.19;;;17.23;37.83
56630;BME280;42502;40.732;-74.254;2022-12-11T06:42:19;101795.25;;;17.24;37.79
56630;BME280;42502;40.732;-74.254;2022-12-11T06:44:20;101802.50;;;17.25;37.77
56630;BME280;42502;40.732;-74.254;2022-12-11T06:46:21;101792.47;;;17.24;37.69
56630;BME280;42502;40.732;-74.254;2022-12-11T06:48:22;101783.31;;;17.18;37.79
56630;BME280;42502;40.732;-74.254;2022-12-11T06:50:23;101766.06;;;17.16;37.71
56630;BME280;42502;40.732;-74.254;2022-12-11T06:52:25;101789.47;;;17.20;37.75
56630;BME280;42502;40.732;-74.254;2022-12-11T06:54:29;101794.19;;;17.20;37.95
56630;BME280;42502;40.732;-74.254;2022-12-11T06:56:33;101792.00;;;17.17;37.56
56630;BME280;42502;40.732;-74.254;2022-12-11T06:58:35;101781.38;;;17.19;37.85
56630;BME280;42502;40.732;-74.254;2022-12-11T07:00:37;101760.78;;;17.15;37.72
56630;BME280;42502;40.732;-74.254;2022-12-11T07:02:38;101760.78;;;17.15;37.54
56630;BME280;42502;40.732;-74.254;2022-12-11T07:04:39;101753.22;;;17.15;37.77
56630;BME280;42502;40.732;-74.254;2022-12-11T07:06:40;101753.75;;;17.17;37.73
56630;BME280;42502;40.732;-74.254;2022-12-11T07:08:41;101750.13;;;17.17;37.48
56630;BME280;42502;40.732;-74.254;2022-12-11T07:10:43;101750.44;;;17.15;37.64
56630;BME280;42502;40.732;-74.254;2022-12-11T07:12:43;101720.31;;;17.12;37.63
56630;BME280;42502;40.732;-74.254;2022-12-11T07:14:44;101725.28;;;17.15;37.40
56630;BME280;42502;40.732;-74.254;2022-12-11T07:16:45;101714.22;;;17.10;37.58
56630;BME280;42502;40.732;-74.254;2022-12-11T07:18:48;101729.25;;;17.14;37.70
56630;BME280;42502;40.732;-74.254;2022-12-11T07:20:49;101740.72;;;17.13;37.71
56630;BME280;42502;40.732;-74.254;2022-12-11T07:22:50;101753.00;;;17.12;37.54
56630;BME280;42502;40.732;-74.254;2022-12-11T07:24:53;101754.69;;;17.13;37.34
56630;BME280;42502;40.732;-74.254;2022-12-11T07:26:54;101762.22;;;17.12;37.54
56630;BME280;42502;40.732;-74.254;2022-12-11T07:28:59;101763.97;;;17.08;37.42
56630;BME280;42502;40.732;-74.254;2022-12-11T07:31:11;101768.09;;;17.11;37.41
56630;BME280;42502;40.732;-74.254;2022-12-11T07:33:12;101752.50;;;17.10;37.24
56630;BME280;42502;40.732;-74.254;2022-12-11T07:35:13;101764.47;;;17.10;37.41
56630;BME280;42502;40.732;-74.254;2022-12-11T07:37:14;101769.56;;;17.08;37.42
56630;BME280;42502;40.732;-74.254;2022-12-11T07:39:15;101763.97;;;17.08;37.16
56630;BME280;42502;40.732;-74.254;2022-12-11T07:41:20;101761.19;;;17.08;37.69
56630;BME280;42502;40.732;-74.254;2022-12-11T07:43:21;101755.91;;;17.07;37.32
56630;BME280;42502;40.732;-74.254;2022-12-11T07:45:22;101760.63;;;17.06;37.45
56630;BME280;42502;40.732;-74.254;2022-12-11T07:47:23;101768.50;;;17.04;37.25
56630;BME280;42502;40.732;-74.254;2022-12-11T07:49:26;101755.97;;;17.01;37.42
56630;BME280;42502;40.732;-74.254;2022-12-11T07:51:30;101738.91;;;17.03;37.48
56630;BME280;42502;40.732;-74.254;2022-12-11T07:53:31;101735.81;;;17.04;37.19
56630;BME280;42502;40.732;-74.254;2022-12-11T07:55:32;101737.78;;;17.04;37.49
56630;BME280;42502;40.732;-74.254;2022-12-11T07:57:33;101726.69;;;16.99;37.19
56630;BME280;42502;40.732;-74.254;2022-12-11T07:59:33;101714.09;;;17.01;37.50
56630;BME280;42502;40.732;-74.254;2022-12-11T08:01:35;101719.16;;;16.99;37.24
56630;BME280;42502;40.732;-74.254;2022-12-11T08:03:39;101730.00;;;17.01;37.46
56630;BME280;42502;40.732;-74.254;2022-12-11T08:05:48;101712.41;;;17.00;37.35
56630;BME280;42502;40.732;-74.254;2022-12-11T08:07:50;101696.53;;;17.01;37.04
56630;BME280;42502;40.732;-74.254;2022-12-11T08:09:50;101694.03;;;16.99;37.25
56630;BME280;42502;40.732;-74.254;2022-12-11T08:11:51;101700.44;;;17.00;37.36
56630;BME280;42502;40.732;-74.254;2022-12-11T08:13:53;101702.16;;;16.96;37.37
56630;BME280;42502;40.732;-74.254;2022-12-11T08:16:03;101716.66;;;16.98;37.49
56630;BME280;42502;40.732;-74.254;2022-12-11T08:18:04;101706.13;;;16.95;37.14
56630;BME280;42502;40.732;-74.254;2022-12-11T08:20:05;101715.00;;;16.97;37.30
56630;BME280;42502;40.732;-74.254;2022-12-11T08:22:07;101715.81;;;16.97;37.22
56630;BME280;42502;40.732;-74.254;2022-12-11T08:24:08;101720.59;;;16.97;37.37
56630;BME280;42502;40.732;-74.254;2022-12-11T08:26:17;101715.59;;;16.94;37.21
56630;BME280;42502;40.732;-74.254;2022-12-11T08:28:18;101689.44;;;16.90;37.18
56630;BME280;42502;40.732;-74.254;2022-12-11T08:30:19;101691.63;;;16.93;37.07
56630;BME280;42502;40.732;-74.254;2022-12-11T08:32:23;101698.34;;;16.92;37.25
56630;BME280;42502;40.732;-74.254;2022-12-11T08:34:23;101703.09;;;16.91;37.27
56630;BME280;42502;40.732;-74.254;2022-12-11T08:36:25;101679.13;;;16.90;37.47
56630;BME280;42502;40.732;-74.254;2022-12-11T08:38:26;101679.13;;;16.90;37.12
56630;BME280;42502;40.732;-74.254;2022-12-11T08:40:26;101677.97;;;16.91;37.23
56630;BME280;42502;40.732;-74.254;2022-12-11T08:42:27;101676.31;;;16.90;37.03
56630;BME280;42502;40.732;-74.254;2022-12-11T08:44:28;101685.59;;;16.85;37.19
56630;BME280;42502;40.732;-74.254;2022-12-11T08:46:31;101700.59;;;16.90;37.05
56630;BME280;42502;40.732;-74.254;2022-12-11T08:48:34;101684.22;;;16.83;37.22
56630;BME280;42502;40.732;-74.254;2022-12-11T08:50:41;101714.03;;;16.87;36.93
56630;BME280;42502;40.732;-74.254;2022-12-11T08:52:43;101723.59;;;16.81;37.20
56630;BME280;42502;40.732;-74.254;2022-12-11T08:54:46;101725.47;;;16.86;37.20
56630;BME280;42502;40.732;-74.254;2022-12-11T08:56:47;101734.69;;;16.86;37.32
56630;BME280;42502;40.732;-74.254;2022-12-11T08:58:49;101742.53;;;16.84;37.25
56630;BME280;42502;40.732;-74.254;2022-12-11T09:00:50;101733.03;;;16.85;36.91
56630;BME280;42502;40.732;-74.254;2022-12-11T09:02:51;101732.19;;;16.85;37.28
56630;BME280;42502;40.732;-74.254;2022-12-11T09:04:52;101730.53;;;16.84;37.13
56630;BME280;42502;40.732;-74.254;2022-12-11T09:06:53;101733.63;;;16.82;37.09
56630;BME280;42502;40.732;-74.254;2022-12-11T09:08:58;101732.78;;;16.82;37.12
56630;BME280;42502;40.732;-74.254;2022-12-11T09:11:11;101734.75;;;16.81;37.06
56630;BME280;42502;40.732;-74.254;2022-12-11T09:13:13;101733.63;;;16.82;37.17
56630;BME280;42502;40.732;-74.254;2022-12-11T09:15:14;101731.16;;;16.81;36.83
56630;BME280;42502;40.732;-74.254;2022-12-11T09:17:15;101732.06;;;16.76;37.02
56630;BME280;42502;40.732;-74.254;2022-12-11T09:19:15;101737.84;;;16.80;36.78
56630;BME280;42502;40.732;-74.254;2022-12-11T09:21:18;101740.63;;;16.80;36.99
56630;BME280;42502;40.732;-74.254;2022-12-11T09:23:20;101734.00;;;16.76;37.21
56630;BME280;42502;40.732;-74.254;2022-12-11T09:25:23;101736.47;;;16.77;36.92
56630;BME280;42502;40.732;-74.254;2022-12-11T09:27:24;101744.84;;;16.77;37.19
56630;BME280;42502;40.732;-74.254;2022-12-11T09:29:25;101740.13;;;16.78;37.06
56630;BME280;42502;40.732;-74.254;2022-12-11T09:31:29;101741.53;;;16.75;36.83
56630;BME280;42502;40.732;-74.254;2022-12-11T09:33:30;101739.56;;;16.76;36.99
56630;BME280;42502;40.732;-74.254;2022-12-11T09:35:31;101719.22;;;16.75;36.85
56630;BME280;42502;40.732;-74.254;2022-12-11T09:37:32;101695.03;;;16.70;36.96
56630;BME280;42502;40.732;-74.254;2022-12-11T09:39:33;101696.34;;;16.73;37.05
56630;BME280;42502;40.732;-74.254;2022-12-11T09:44:39;101658.19;;;16.68;36.96
56630;BME280;42502;40.732;-74.254;2022-12-11T09:46:42;101654.91;;;16.66;37.18
56630;BME280;42502;40.732;-74.254;2022-12-11T09:48:48;101686.66;;;16.70;36.89
56630;BME280;42502;40.732;-74.254;2022-12-11T09:50:54;101690.34;;;16.66;36.94
56630;BME280;42502;40.732;-74.254;2022-12-11T09:53:25;101692.00;;;16.67;36.78
56630;BME280;42502;40.732;-74.254;2022-12-11T09:55:39;101677.72;;;16.68;37.06
56630;BME280;42502;40.732;-74.254;2022-12-11T09:57:47;101657.38;;;16.68;36.92
56630;BME280;42502;40.732;-74.254;2022-12-11T10:00:03;101667.72;;;16.67;36.77
56630;BME280;42502;40.732;-74.254;2022-12-11T10:09:18;101640.19;;;16.61;36.89
56630;BME280;42502;40.732;-74.254;2022-12-11T10:11:48;101666.38;;;16.65;36.87
56630;BME280;42502;40.732;-74.254;2022-12-11T10:14:05;101663.06;;;16.63;36.92
56630;BME280;42502;40.732;-74.254;2022-12-11T10:16:32;101655.59;;;16.58;37.10
56630;BME280;42502;40.732;-74.254;2022-12-11T10:18:35;101649.94;;;16.63;37.00
56630;BME280;42502;40.732;-74.254;2022-12-11T10:20:37;101641.03;;;16.61;37.00
56630;BME280;42502;40.732;-74.254;2022-12-11T10:22:43;101641.34;;;16.60;36.82
56630;BME280;42502;40.732;-74.254;2022-12-11T10:24:56;101622.44;;;16.57;36.82
56630;BME280;42502;40.732;-74.254;2022-12-11T10:27:00;101624.59;;;16.60;37.03
56630;BME280;42502;40.732;-74.254;2022-12-11T10:29:14;101625.72;;;16.59;36.95
56630;BME280;42502;40.732;-74.254;2022-12-11T10:31:34;101623.25;;;16.57;36.85
56630;BME280;42502;40.732;-74.254;2022-12-11T10:34:02;101620.44;;;16.57;36.69
56630;BME280;42502;40.732;-74.254;2022-12-11T10:36:06;101619.34;;;16.58;36.95
56630;BME280;42502;40.732;-74.254;2022-12-11T10:38:14;101616.84;;;16.57;36.97
56630;BME280;42502;40.732;-74.254;2022-12-11T10:40:19;101617.97;;;16.56;36.95
56630;BME280;42502;40.732;-74.254;2022-12-11T10:42:21;101617.16;;;16.55;37.05
56630;BME280;42502;40.732;-74.254;2022-12-11T10:44:30;101617.97;;;16.56;36.88
56630;BME280;42502;40.732;-74.254;2022-12-11T10:46:31;101610.13;;;16.58;36.68
56630;BME280;42502;40.732;-74.254;2022-12-11T10:48:52;101608.78;;;16.55;36.75
56630;BME280;42502;40.732;-74.254;2022-12-11T10:51:04;101595.13;;;16.54;36.70
56630;BME280;42502;40.732;-74.254;2022-12-11T10:53:05;101594.28;;;16.53;36.79
56630;BME280;42502;40.732;-74.254;2022-12-11T10:57:39;101583.13;;;16.53;36.98